createdAt,value
2018-03-22T00:02:03.688Z,60.91
2018-03-22T00:04:32.000Z,60.68
2018-03-22T00:07:00.376Z,60.83
2018-03-22T00:09:29.070Z,60.88
2018-03-22T00:11:58.039Z,60.63
2018-03-22T00:14:27.364Z,60.60
2018-03-22T00:16:56.530Z,60.52
2018-03-22T00:19:24.884Z,60.54
2018-03-22T00:21:54.018Z,60.47
2018-03-22T00:24:22.322Z,60.19
2018-03-22T00:26:50.653Z,60.15
2018-03-22T00:29:19.020Z,60.21
2018-03-22T00:31:48.103Z,60.15
2018-03-22T00:34:16.436Z,60.29
2018-03-22T00:36:44.773Z,60.16
2018-03-22T00:39:13.185Z,60.01
2018-03-22T00:41:41.515Z,59.33
2018-03-22T00:44:10.631Z,58.91
2018-03-22T00:46:38.943Z,59.05
2018-03-22T00:49:07.289Z,58.79
2018-03-22T00:51:35.637Z,59.17
2018-03-22T00:54:03.937Z,58.92
2018-03-22T00:56:32.251Z,58.74
2018-03-22T00:59:01.907Z,58.47
2018-03-22T01:01:31.103Z,58.80
2018-03-22T01:04:00.878Z,58.67
2018-03-22T01:06:29.232Z,58.80
2018-03-22T01:08:57.564Z,58.68
2018-03-22T01:11:26.639Z,58.59
2018-03-22T01:13:54.998Z,58.86
2018-03-22T01:16:23.308Z,58.58
2018-03-22T01:18:52.391Z,58.35
2018-03-22T01:21:20.748Z,58.32
2018-03-22T01:23:49.102Z,58.09
2018-03-22T01:26:17.437Z,58.14
2018-03-22T01:28:46.551Z,58.16
2018-03-22T01:31:15.671Z,58.22
2018-03-22T01:33:44.390Z,58.35
2018-03-22T01:36:12.698Z,58.49
2018-03-22T01:38:41.854Z,58.70
2018-03-22T01:41:10.143Z,58.78
2018-03-22T01:43:38.850Z,58.80
2018-03-22T01:46:08.782Z,59.09
2018-03-22T01:48:37.401Z,59.09
2018-03-22T01:51:05.805Z,58.88
2018-03-22T01:53:34.116Z,58.92
2018-03-22T01:56:03.233Z,59.07
2018-03-22T01:58:31.574Z,59.05
2018-03-22T02:00:59.923Z,59.13
2018-03-22T02:03:28.216Z,59.44
2018-03-22T02:05:56.538Z,59.89
2018-03-22T02:08:24.878Z,60.20
2018-03-22T02:10:53.210Z,60.39
2018-03-22T02:13:21.531Z,60.75
2018-03-22T02:15:49.859Z,61.02
2018-03-22T02:18:18.858Z,61.22
2018-03-22T02:20:47.208Z,61.40
2018-03-22T02:23:15.638Z,61.66
2018-03-22T02:25:44.703Z,61.75
2018-03-22T02:28:14.008Z,61.89
2018-03-22T02:30:42.406Z,62.30
2018-03-22T02:33:11.975Z,62.48
2018-03-22T02:35:40.291Z,62.49
2018-03-22T02:38:08.650Z,62.28
2018-03-22T02:40:36.972Z,62.37
2018-03-22T02:43:06.087Z,62.42
2018-03-22T02:45:35.206Z,62.82
2018-03-22T02:48:03.541Z,62.84
2018-03-22T02:50:32.684Z,62.95
2018-03-22T02:53:01.009Z,62.65
2018-03-22T02:55:30.112Z,62.50
2018-03-22T02:57:59.205Z,62.50
2018-03-22T03:00:28.370Z,62.50
2018-03-22T03:02:56.648Z,62.33
2018-03-22T03:05:24.976Z,62.07
2018-03-22T03:07:53.314Z,62.06
2018-03-22T03:10:22.116Z,62.00
2018-03-22T03:12:50.630Z,61.80
2018-03-22T03:15:19.028Z,61.80
2018-03-22T03:17:47.338Z,61.77
2018-03-22T03:20:15.692Z,61.54
2018-03-22T03:22:43.998Z,61.59
2018-03-22T03:25:12.311Z,61.71
2018-03-22T03:27:40.671Z,61.83
2018-03-22T03:30:09.779Z,61.86
2018-03-22T03:32:38.158Z,61.91
2018-03-22T03:35:06.464Z,61.79
2018-03-22T03:37:34.814Z,61.69
2018-03-22T03:40:03.162Z,61.57
2018-03-22T03:42:31.512Z,61.39
2018-03-22T03:44:59.832Z,61.26
2018-03-22T03:47:29.038Z,61.30
2018-03-22T03:49:58.598Z,61.19
2018-03-22T03:52:27.161Z,60.87
2018-03-22T03:54:55.531Z,60.92
2018-03-22T03:57:23.855Z,60.56
2018-03-22T03:59:52.225Z,60.56
2018-03-22T04:02:20.550Z,60.45
2018-03-22T04:04:48.917Z,60.37
2018-03-22T04:07:17.995Z,60.64
2018-03-22T04:09:47.468Z,60.71
2018-03-22T04:12:15.832Z,60.68
2018-03-22T04:14:44.202Z,60.62
2018-03-22T04:17:12.509Z,60.76
2018-03-22T04:19:40.835Z,60.81
2018-03-22T04:22:09.568Z,60.79
2018-03-22T04:24:38.643Z,60.77
2018-03-22T04:27:06.977Z,60.84
2018-03-22T04:29:36.105Z,61.03
2018-03-22T04:32:04.823Z,60.94
2018-03-22T04:34:33.898Z,61.02
2018-03-22T04:37:03.336Z,61.03
2018-03-22T04:39:31.646Z,60.99
2018-03-22T04:41:59.989Z,61.00
2018-03-22T04:44:28.329Z,60.90
2018-03-22T04:46:57.789Z,61.04
2018-03-22T04:49:26.915Z,61.02
2018-03-22T04:51:55.290Z,61.22
2018-03-22T04:54:24.335Z,61.37
2018-03-22T04:56:52.679Z,61.62
2018-03-22T04:59:21.024Z,61.56
2018-03-22T05:01:50.125Z,61.59
2018-03-22T05:04:18.468Z,61.34
2018-03-22T05:06:46.778Z,61.31
2018-03-22T05:09:15.110Z,61.61
2018-03-22T05:11:43.444Z,61.76
2018-03-22T05:14:12.708Z,61.71
2018-03-22T05:16:41.042Z,61.81
2018-03-22T05:19:09.374Z,61.78
2018-03-22T05:21:38.763Z,61.86
2018-03-22T05:24:07.827Z,61.66
2018-03-22T05:26:36.159Z,61.76
2018-03-22T05:29:04.464Z,61.66
2018-03-22T05:31:32.820Z,61.71
2018-03-22T05:34:01.188Z,61.81
2018-03-22T05:36:29.600Z,61.55
2018-03-22T05:38:57.956Z,61.59
2018-03-22T05:41:26.285Z,61.62
2018-03-22T05:43:54.641Z,61.65
2018-03-22T05:46:22.945Z,61.21
2018-03-22T05:48:51.264Z,61.18
2018-03-22T05:51:19.615Z,61.26
2018-03-22T05:53:48.753Z,61.16
2018-03-22T05:56:18.028Z,60.92
2018-03-22T05:58:46.389Z,60.83
2018-03-22T06:01:14.730Z,60.39
2018-03-22T06:03:43.060Z,60.43
2018-03-22T06:06:11.480Z,59.93
2018-03-22T06:08:39.801Z,59.81
2018-03-22T06:11:08.172Z,59.62
2018-03-22T06:13:37.279Z,59.15
2018-03-22T06:16:05.733Z,59.34
2018-03-22T06:18:34.062Z,59.03
2018-03-22T06:21:02.392Z,58.63
2018-03-22T06:23:30.728Z,58.12
2018-03-22T06:25:59.128Z,57.88
2018-03-22T06:28:27.440Z,57.66
2018-03-22T06:30:56.520Z,57.07
2018-03-22T06:33:24.875Z,56.80
2018-03-22T06:35:53.332Z,56.03
2018-03-22T06:38:21.769Z,54.75
2018-03-22T06:40:50.873Z,53.80
2018-03-22T06:43:19.962Z,53.45
2018-03-22T06:45:49.064Z,53.05
2018-03-22T06:48:17.379Z,53.14
2018-03-22T06:50:45.720Z,52.54
2018-03-22T06:53:14.802Z,51.43
2018-03-22T06:55:43.142Z,51.52
2018-03-22T06:58:11.480Z,52.01
2018-03-22T07:00:39.846Z,53.19
2018-03-22T07:03:08.219Z,53.59
2018-03-22T07:05:38.658Z,53.92
2018-03-22T07:08:07.000Z,53.85
2018-03-22T07:10:35.301Z,53.50
2018-03-22T07:13:04.399Z,52.74
2018-03-22T07:15:32.760Z,52.94
2018-03-22T07:18:01.272Z,52.53
2018-03-22T07:20:29.586Z,51.90
2018-03-22T07:22:57.947Z,51.29
2018-03-22T07:25:27.117Z,51.07
2018-03-22T07:27:55.386Z,50.75
2018-03-22T07:30:23.738Z,50.43
2018-03-22T07:32:52.096Z,49.99
2018-03-22T07:35:20.443Z,49.54
2018-03-22T07:37:48.793Z,49.57
2018-03-22T07:40:17.973Z,49.16
2018-03-22T07:42:51.707Z,49.82
2018-03-22T07:45:20.035Z,50.29
2018-03-22T07:47:48.334Z,49.98
2018-03-22T07:50:16.759Z,49.85
2018-03-22T07:52:45.075Z,49.26
2018-03-22T07:55:13.419Z,49.11
2018-03-22T07:57:41.774Z,49.52
2018-03-22T08:00:10.166Z,48.83
2018-03-22T08:02:38.877Z,49.30
2018-03-22T08:05:07.300Z,49.04
2018-03-22T08:07:36.388Z,48.84
2018-03-22T08:10:04.707Z,48.53
2018-03-22T08:12:33.063Z,48.87
2018-03-22T08:15:01.407Z,48.77
2018-03-22T08:17:29.713Z,48.21
2018-03-22T08:19:58.067Z,47.22
2018-03-22T08:22:27.156Z,46.84
2018-03-22T08:24:55.539Z,46.77
2018-03-22T08:27:24.634Z,46.42
2018-03-22T08:29:53.753Z,47.09
2018-03-22T08:32:22.091Z,46.61
2018-03-22T08:34:50.433Z,46.37
2018-03-22T08:37:18.774Z,46.37
2018-03-22T08:39:47.904Z,47.23
2018-03-22T08:42:16.265Z,47.44
2018-03-22T08:44:44.611Z,46.98
2018-03-22T08:47:13.757Z,47.04
2018-03-22T08:49:42.188Z,47.37
2018-03-22T08:52:11.301Z,46.75
2018-03-22T08:54:39.633Z,45.99
2018-03-22T08:57:07.951Z,45.64
2018-03-22T08:59:37.066Z,44.25
2018-03-22T09:02:05.390Z,44.63
2018-03-22T09:04:33.733Z,45.56
2018-03-22T09:07:02.071Z,45.66
2018-03-22T09:09:31.222Z,46.29
2018-03-22T09:11:59.592Z,47.81
2018-03-22T09:14:27.890Z,46.95
2018-03-22T09:16:56.239Z,46.46
2018-03-22T09:19:25.333Z,45.52
2018-03-22T09:21:54.084Z,45.75
2018-03-22T09:24:23.162Z,44.43
2018-03-22T09:26:57.105Z,44.21
2018-03-22T09:29:25.493Z,45.17
2018-03-22T09:31:53.745Z,44.81
2018-03-22T09:34:22.874Z,45.76
2018-03-22T09:36:51.237Z,45.85
2018-03-22T09:39:19.623Z,46.76
2018-03-22T09:41:48.030Z,46.39
2018-03-22T09:44:16.347Z,47.27
2018-03-22T09:46:45.452Z,47.98
2018-03-22T09:49:13.777Z,47.91
2018-03-22T09:51:42.098Z,47.22
2018-03-22T09:54:11.166Z,47.63
2018-03-22T09:56:39.938Z,48.33
2018-03-22T09:59:08.330Z,48.70
2018-03-22T10:01:36.652Z,47.77
2018-03-22T10:04:04.991Z,47.67
2018-03-22T10:06:33.356Z,48.71
2018-03-22T10:09:01.682Z,50.29
2018-03-22T10:11:30.046Z,52.19
2018-03-22T10:13:59.150Z,54.62
2018-03-22T10:16:28.640Z,54.83
2018-03-22T10:18:57.070Z,57.17
2018-03-22T10:21:25.404Z,58.97
2018-03-22T10:23:54.480Z,61.07
2018-03-22T10:26:22.843Z,60.59
2018-03-22T10:28:51.194Z,61.07
2018-03-22T10:31:19.510Z,62.69
2018-03-22T10:33:48.258Z,63.51
2018-03-22T10:36:16.836Z,64.04
2018-03-22T10:38:45.182Z,64.49
2018-03-22T10:41:14.273Z,64.68
2018-03-22T10:43:43.394Z,65.00
2018-03-22T10:46:11.732Z,63.90
2018-03-22T10:48:40.055Z,62.23
2018-03-22T10:51:08.423Z,60.08
2018-03-22T10:53:36.744Z,60.69
2018-03-22T10:56:05.078Z,60.50
2018-03-22T10:58:33.590Z,59.54
2018-03-22T11:01:07.458Z,60.43
2018-03-22T11:03:41.450Z,61.69
2018-03-22T11:06:10.536Z,61.60
2018-03-22T11:08:38.990Z,61.71
2018-03-22T11:11:07.737Z,60.67
2018-03-22T11:13:36.922Z,59.94
2018-03-22T11:16:05.291Z,62.07
2018-03-22T11:18:33.616Z,62.96
2018-03-22T11:21:01.982Z,63.22
2018-03-22T11:23:31.118Z,64.55
2018-03-22T11:25:59.482Z,64.05
2018-03-22T11:28:27.807Z,62.26
2018-03-22T11:30:56.161Z,62.29
2018-03-22T11:33:25.318Z,62.00
2018-03-22T11:35:53.650Z,62.37
2018-03-22T11:38:21.988Z,63.06
2018-03-22T11:40:50.394Z,63.98
2018-03-22T11:43:19.527Z,64.38
2018-03-22T11:45:47.850Z,65.43
2018-03-22T11:48:16.225Z,65.25
2018-03-22T11:50:44.597Z,66.58
2018-03-22T11:53:12.933Z,67.75
2018-03-22T11:55:41.286Z,67.01
2018-03-22T11:58:10.420Z,67.02
2018-03-22T12:00:38.770Z,66.00
2018-03-22T12:03:07.126Z,68.47
2018-03-22T12:05:35.450Z,69.10
2018-03-22T12:08:03.810Z,69.34
2018-03-22T12:10:32.169Z,70.10
2018-03-22T12:13:01.372Z,71.11
2018-03-22T12:15:29.734Z,71.33
2018-03-22T12:17:58.821Z,70.46
2018-03-22T12:20:27.165Z,68.79
2018-03-22T12:22:55.482Z,70.19
2018-03-22T12:25:24.606Z,71.32
2018-03-22T12:27:52.968Z,71.95
2018-03-22T12:30:22.098Z,72.29
2018-03-22T12:32:50.514Z,72.07
2018-03-22T12:35:18.870Z,71.72
2018-03-22T12:37:47.237Z,71.64
2018-03-22T12:40:15.551Z,72.16
2018-03-22T12:42:43.894Z,72.18
2018-03-22T12:45:12.213Z,71.36
2018-03-22T12:47:40.577Z,71.04
2018-03-22T12:50:08.912Z,70.62
2018-03-22T12:52:37.275Z,71.02
2018-03-22T12:55:05.603Z,72.03
2018-03-22T12:57:33.929Z,72.65
2018-03-22T13:00:02.309Z,72.94
2018-03-22T13:02:31.391Z,73.14
2018-03-22T13:05:00.515Z,73.22
2018-03-22T13:07:28.984Z,73.64
2018-03-22T13:09:57.369Z,73.12
2018-03-22T13:12:25.715Z,73.15
2018-03-22T13:14:54.837Z,73.11
2018-03-22T13:17:23.201Z,73.42
2018-03-22T13:19:51.946Z,73.18
2018-03-22T13:22:20.305Z,73.85
2018-03-22T13:24:49.406Z,73.44
2018-03-22T13:27:17.747Z,73.58
2018-03-22T13:29:46.073Z,73.04
2018-03-22T13:32:14.433Z,73.15
2018-03-22T13:34:42.787Z,72.60
2018-03-22T13:37:12.032Z,72.79
2018-03-22T13:39:40.413Z,72.33
2018-03-22T13:42:08.727Z,72.49
2018-03-22T13:44:37.064Z,72.83
2018-03-22T13:47:05.389Z,73.22
2018-03-22T13:49:33.813Z,73.86
2018-03-22T13:52:02.299Z,73.41
2018-03-22T13:54:30.674Z,73.84
2018-03-22T13:56:59.804Z,73.70
2018-03-22T13:59:28.153Z,74.15
2018-03-22T14:01:56.750Z,74.50
2018-03-22T14:04:25.085Z,74.81
2018-03-22T14:06:53.456Z,75.04
2018-03-22T14:09:21.827Z,74.52
2018-03-22T14:11:50.158Z,74.79
2018-03-22T14:14:18.528Z,75.62
2018-03-22T14:16:46.856Z,75.29
2018-03-22T14:19:15.224Z,75.30
2018-03-22T14:21:43.594Z,75.67
2018-03-22T14:24:12.314Z,75.98
2018-03-22T14:26:40.666Z,76.51
2018-03-22T14:29:09.642Z,76.88
2018-03-22T14:31:38.208Z,77.04
2018-03-22T14:34:06.577Z,76.74
2018-03-22T14:36:34.890Z,77.30
2018-03-22T14:39:03.306Z,77.45
2018-03-22T14:41:31.643Z,77.53
2018-03-22T14:44:00.769Z,77.58
2018-03-22T14:46:29.086Z,77.74
2018-03-22T14:48:57.497Z,77.77
2018-03-22T14:51:25.849Z,77.70
2018-03-22T14:53:54.222Z,78.10
2018-03-22T14:56:22.543Z,78.90
2018-03-22T14:58:50.872Z,79.22
2018-03-22T15:01:20.047Z,79.44
2018-03-22T15:03:48.387Z,79.94
2018-03-22T15:06:16.768Z,80.04
2018-03-22T15:08:45.769Z,80.00
2018-03-22T15:11:14.128Z,80.37
2018-03-22T15:13:43.758Z,80.28
2018-03-22T15:16:12.099Z,80.17
2018-03-22T15:18:41.219Z,80.15
2018-03-22T15:21:09.567Z,80.21
2018-03-22T15:23:38.658Z,80.53
2018-03-22T15:26:07.146Z,80.69
2018-03-22T15:28:36.285Z,80.84
2018-03-22T15:31:04.686Z,80.74
2018-03-22T15:33:33.079Z,80.71
2018-03-22T15:36:01.472Z,80.46
2018-03-22T15:38:30.587Z,80.55
2018-03-22T15:40:59.748Z,80.71
2018-03-22T15:43:28.174Z,81.12
2018-03-22T15:45:56.556Z,81.10
2018-03-22T15:48:24.908Z,81.39
2018-03-22T15:50:54.039Z,81.29
2018-03-22T15:53:22.513Z,81.62
2018-03-22T15:55:51.653Z,81.55
2018-03-22T15:58:20.806Z,81.67
2018-03-22T16:00:49.167Z,81.76
2018-03-22T16:03:17.539Z,82.02
2018-03-22T16:05:46.636Z,82.03
2018-03-22T16:08:16.524Z,81.87
2018-03-22T16:10:45.520Z,81.85
2018-03-22T16:13:13.834Z,81.82
2018-03-22T16:15:42.194Z,81.69
2018-03-22T16:18:10.546Z,81.84
2018-03-22T16:20:38.894Z,82.16
2018-03-22T16:23:07.257Z,82.11
2018-03-22T16:25:35.623Z,82.14
2018-03-22T16:28:03.956Z,82.08
2018-03-22T16:30:32.303Z,82.24
2018-03-22T16:33:00.645Z,82.04
2018-03-22T16:35:29.229Z,82.22
2018-03-22T16:37:57.593Z,82.11
2018-03-22T16:40:26.664Z,82.22
2018-03-22T16:42:55.060Z,82.54
2018-03-22T16:45:24.155Z,82.64
2018-03-22T16:47:53.280Z,82.56
2018-03-22T16:50:21.620Z,82.70
2018-03-22T16:52:49.970Z,82.94
2018-03-22T16:55:18.311Z,82.88
2018-03-22T16:57:46.688Z,82.92
2018-03-22T17:00:15.187Z,82.96
2018-03-22T17:02:43.578Z,83.10
2018-03-22T17:05:11.963Z,83.09
2018-03-22T17:07:41.254Z,83.14
2018-03-22T17:10:10.573Z,83.03
2018-03-22T17:12:38.947Z,83.17
2018-03-22T17:15:07.407Z,83.28
2018-03-22T17:17:37.637Z,83.15
2018-03-22T17:20:06.740Z,83.18
2018-03-22T17:22:35.062Z,83.64
2018-03-22T17:25:04.548Z,83.77
2018-03-22T17:27:32.888Z,84.04
2018-03-22T17:30:01.523Z,84.12
2018-03-22T17:32:30.641Z,84.32
2018-03-22T17:34:59.077Z,84.53
2018-03-22T17:37:27.421Z,84.54
2018-03-22T17:39:57.014Z,84.76
2018-03-22T17:42:25.438Z,84.84
2018-03-22T17:44:53.833Z,84.85
2018-03-22T17:47:23.787Z,84.91
2018-03-22T17:49:53.916Z,85.00
2018-03-22T17:52:22.330Z,85.11
2018-03-22T17:54:50.814Z,85.27
2018-03-22T17:57:19.664Z,85.30
2018-03-22T17:59:49.839Z,85.27
2018-03-22T18:02:19.650Z,85.36
2018-03-22T18:04:48.881Z,85.35
2018-03-22T18:07:27.268Z,85.37
2018-03-22T18:09:56.546Z,85.60
2018-03-22T18:12:25.035Z,85.78
2018-03-22T18:14:55.264Z,85.86
2018-03-22T18:17:25.631Z,86.01
2018-03-22T18:19:59.242Z,86.02
2018-03-22T18:22:29.014Z,86.19
2018-03-22T18:24:57.841Z,86.28
2018-03-22T18:27:28.637Z,86.26
2018-03-22T18:29:58.515Z,86.18
2018-03-22T18:32:30.172Z,86.08
2018-03-22T18:35:01.707Z,86.05
2018-03-22T18:37:38.983Z,85.92
2018-03-22T18:40:16.253Z,85.64
2018-03-22T18:42:49.262Z,85.66
2018-03-22T18:45:18.849Z,85.59
2018-03-22T18:47:47.278Z,85.61
2018-03-22T18:50:16.895Z,85.67
2018-03-22T18:52:46.026Z,85.62
2018-03-22T18:55:14.412Z,85.64
2018-03-22T18:57:44.437Z,85.66
2018-03-22T19:00:13.662Z,85.49
2018-03-22T19:02:42.162Z,85.44
2018-03-22T19:05:11.376Z,85.51
2018-03-22T19:07:41.818Z,85.50
2018-03-22T19:13:07.647Z,85.22
2018-03-22T19:15:39.135Z,85.15
2018-03-22T19:18:07.592Z,85.05
2018-03-22T19:20:36.012Z,84.95
2018-03-22T19:23:06.014Z,84.87
2018-03-22T19:25:35.211Z,85.06
2018-03-22T19:28:09.395Z,85.27
2018-03-22T19:30:37.903Z,85.42
2018-03-22T19:33:07.650Z,85.38
2018-03-22T19:35:38.001Z,85.20
2018-03-22T19:38:08.038Z,85.26
2018-03-22T19:40:38.969Z,85.28
2018-03-22T19:43:09.300Z,85.41
2018-03-22T19:45:39.416Z,85.32
2018-03-22T19:48:10.003Z,85.33
2018-03-22T19:50:41.151Z,85.39
2018-03-22T19:53:11.240Z,85.42
2018-03-22T19:58:42.985Z,85.56
2018-03-22T20:04:10.962Z,85.59
2018-03-22T20:14:16.266Z,85.76
2018-03-22T20:17:13.344Z,85.81
2018-03-22T20:32:18.350Z,86.49
2018-03-22T20:34:52.307Z,86.54
2018-03-22T20:37:29.540Z,86.62
2018-03-22T20:40:29.858Z,86.51
2018-03-22T20:43:01.337Z,86.54
2018-03-22T20:45:29.778Z,86.60
2018-03-22T20:47:59.042Z,86.54
2018-03-22T20:50:28.192Z,86.54
2018-03-22T20:52:56.504Z,86.54
2018-03-22T20:55:24.889Z,86.53
2018-03-22T20:58:06.720Z,86.51
2018-03-22T21:00:35.104Z,86.51
2018-03-22T21:03:03.505Z,86.48
2018-03-22T21:05:32.677Z,86.40
2018-03-22T21:08:01.043Z,86.22
2018-03-22T21:10:29.429Z,86.18
2018-03-22T21:12:57.764Z,86.34
2018-03-22T21:15:26.287Z,86.36
2018-03-22T21:17:54.926Z,86.32
2018-03-22T21:20:25.191Z,86.26
2018-03-22T21:22:56.609Z,86.28
2018-03-22T21:25:25.751Z,86.37
2018-03-22T21:27:57.053Z,86.21
2018-03-22T21:30:26.665Z,86.23
2018-03-22T21:32:56.852Z,86.15
2018-03-22T21:35:27.677Z,86.16
2018-03-22T21:37:57.805Z,86.19
2018-03-22T21:40:28.584Z,86.07
2018-03-22T21:42:58.575Z,86.04
2018-03-22T21:45:29.257Z,86.01
2018-03-22T21:47:59.179Z,86.10
2018-03-22T21:50:50.718Z,86.10
2018-03-22T21:53:19.053Z,86.17
2018-03-22T21:55:48.193Z,86.18
2018-03-22T21:58:16.546Z,86.23
2018-03-22T22:00:44.891Z,86.27
2018-03-22T22:03:13.996Z,86.33
2018-03-22T22:05:42.405Z,86.36
2018-03-22T22:08:10.735Z,86.43
2018-03-22T22:10:39.855Z,86.39
2018-03-22T22:13:08.207Z,86.33
2018-03-22T22:15:36.585Z,86.30
2018-03-22T22:18:06.591Z,86.12
2018-03-22T22:20:35.023Z,86.27
2018-03-22T22:23:04.759Z,86.12
2018-03-22T22:25:35.746Z,86.32
2018-03-22T22:28:05.517Z,86.31
2018-03-22T22:30:36.697Z,86.37
2018-03-22T22:33:06.591Z,86.60
2018-03-22T22:35:36.567Z,86.58
2018-03-22T22:38:07.461Z,86.63
2018-03-22T22:40:37.547Z,86.63
2018-03-22T22:43:08.765Z,86.67
2018-03-22T22:45:38.496Z,86.46
2018-03-22T22:48:08.543Z,86.38
2018-03-22T22:50:39.580Z,86.42
2018-03-22T22:53:09.501Z,86.31
2018-03-22T22:55:40.814Z,86.29
2018-03-22T22:58:10.733Z,86.33
2018-03-22T23:00:40.567Z,86.46
2018-03-22T23:03:11.406Z,86.35
2018-03-22T23:05:41.013Z,86.27
2018-03-22T23:08:12.909Z,86.20
2018-03-22T23:10:42.546Z,86.36
2018-03-22T23:13:12.550Z,86.26
2018-03-22T23:15:43.616Z,85.85
2018-03-22T23:18:13.627Z,86.09
2018-03-22T23:20:51.920Z,85.98
2018-03-22T23:23:20.274Z,86.01
2018-03-22T23:25:48.619Z,86.20
2018-03-22T23:28:16.965Z,86.42
2018-03-22T23:30:45.906Z,86.45
2018-03-22T23:33:16.762Z,86.49
2018-03-22T23:35:46.616Z,86.69
2018-03-22T23:38:16.486Z,86.55
2018-03-22T23:40:47.556Z,86.60
2018-03-22T23:43:17.477Z,86.73
2018-03-22T23:45:48.710Z,86.73
2018-03-22T23:48:18.444Z,86.84
2018-03-22T23:50:47.904Z,86.93
2018-03-22T23:53:19.804Z,86.98
2018-03-22T23:55:49.520Z,86.86
2018-03-22T23:58:20.696Z,86.54
